createdAt,value
2023-05-20T00:01:40.649Z,16.01
2023-05-20T00:04:07.984Z,16.12
2023-05-20T00:06:35.337Z,15.99
2023-05-20T00:09:04.842Z,15.88
2023-05-20T00:11:47.215Z,15.84
2023-05-20T00:14:14.671Z,15.83
2023-05-20T00:17:01.829Z,15.93
2023-05-20T00:19:31.368Z,15.96
2023-05-20T00:21:58.638Z,15.99
2023-05-20T00:24:26.198Z,16.12
2023-05-20T00:26:54.471Z,16.01
2023-05-20T00:29:32.539Z,16.07
2023-05-20T00:32:01.132Z,16.00
2023-05-20T00:34:28.071Z,16.04
2023-05-20T00:36:56.575Z,16.03
2023-05-20T00:39:23.472Z,15.92
2023-05-20T00:41:51.623Z,15.97
2023-05-20T00:44:24.258Z,15.87
2023-05-20T00:46:54.305Z,15.92
2023-05-20T00:49:22.494Z,15.86
2023-05-20T00:52:03.866Z,15.72
2023-05-20T00:54:34.799Z,15.73
2023-05-20T00:57:07.105Z,15.75
2023-05-20T00:59:44.747Z,15.70
2023-05-20T01:02:15.070Z,15.81
2023-05-20T01:04:47.492Z,15.83
2023-05-20T01:07:20.217Z,15.82
2023-05-20T01:09:48.300Z,15.76
2023-05-20T01:12:39.271Z,15.79
2023-05-20T01:15:10.043Z,15.86
2023-05-20T01:17:45.345Z,15.73
2023-05-20T01:20:13.633Z,15.66
2023-05-20T01:22:57.749Z,15.65
2023-05-20T01:25:25.464Z,15.70
2023-05-20T01:27:54.303Z,15.68
2023-05-20T01:30:30.220Z,15.81
2023-05-20T01:33:14.684Z,15.65
2023-05-20T01:35:41.991Z,15.58
2023-05-20T01:38:11.921Z,15.62
2023-05-20T01:40:42.127Z,15.67
2023-05-20T01:43:09.916Z,15.66
2023-05-20T01:45:37.256Z,15.73
2023-05-20T01:48:04.465Z,15.61
2023-05-20T01:50:34.531Z,15.69
2023-05-20T01:53:06.639Z,15.64
2023-05-20T01:55:48.197Z,15.80
2023-05-20T01:58:16.024Z,15.80
2023-05-20T02:00:48.675Z,15.72
2023-05-20T02:03:24.977Z,15.88
2023-05-20T02:05:51.924Z,15.78
2023-05-20T02:08:21.725Z,15.76
2023-05-20T02:10:49.595Z,15.62
2023-05-20T02:13:19.390Z,15.62
2023-05-20T02:15:46.448Z,15.79
2023-05-20T02:18:14.397Z,15.72
2023-05-20T02:20:41.621Z,15.69
2023-05-20T02:23:11.624Z,15.54
2023-05-20T02:25:46.520Z,15.56
2023-05-20T02:28:21.208Z,15.48
2023-05-20T02:30:48.179Z,15.46
2023-05-20T02:33:15.100Z,15.49
2023-05-20T02:35:42.191Z,15.49
2023-05-20T02:38:09.062Z,15.62
2023-05-20T02:40:36.126Z,15.56
2023-05-20T02:43:03.388Z,15.48
2023-05-20T02:45:30.760Z,15.56
2023-05-20T02:47:57.899Z,15.50
2023-05-20T02:50:24.974Z,15.49
2023-05-20T02:52:53.845Z,15.57
2023-05-20T02:55:20.759Z,15.49
2023-05-20T02:57:47.767Z,15.66
2023-05-20T03:00:15.064Z,15.62
2023-05-20T03:02:42.208Z,15.64
2023-05-20T03:05:18.008Z,15.67
2023-05-20T03:07:52.488Z,15.54
2023-05-20T03:10:20.454Z,15.65
2023-05-20T03:12:47.859Z,15.59
2023-05-20T03:15:14.813Z,15.58
2023-05-20T03:17:41.681Z,15.61
2023-05-20T03:20:12.906Z,15.55
2023-05-20T03:22:40.152Z,15.67
2023-05-20T03:25:07.317Z,15.75
2023-05-20T03:27:34.750Z,15.73
2023-05-20T03:30:01.903Z,15.70
2023-05-20T03:32:41.459Z,15.63
2023-05-20T03:35:12.802Z,15.70
2023-05-20T03:37:40.876Z,15.62
2023-05-20T03:40:10.814Z,15.62
2023-05-20T03:42:38.862Z,15.63
2023-05-20T03:45:09.520Z,15.51
2023-05-20T03:47:36.557Z,15.60
2023-05-20T03:50:04.032Z,15.67
2023-05-20T03:52:33.186Z,15.66
2023-05-20T03:55:07.975Z,15.62
2023-05-20T03:57:35.115Z,15.62
2023-05-20T04:00:02.822Z,15.62
2023-05-20T04:02:30.351Z,15.63
2023-05-20T04:04:58.099Z,15.57
2023-05-20T04:07:25.083Z,15.54
2023-05-20T04:09:52.574Z,15.66
2023-05-20T04:12:19.684Z,15.46
2023-05-20T04:14:46.704Z,15.45
2023-05-20T04:17:13.673Z,15.46
2023-05-20T04:19:40.540Z,15.57
2023-05-20T04:22:07.458Z,15.50
2023-05-20T04:24:38.506Z,15.43
2023-05-20T04:27:06.357Z,15.46
2023-05-20T04:29:36.131Z,15.41
2023-05-20T04:32:04.690Z,15.55
2023-05-20T04:34:35.353Z,15.51
2023-05-20T04:37:02.360Z,15.56
2023-05-20T04:39:29.331Z,15.58
2023-05-20T04:41:56.478Z,15.58
2023-05-20T04:44:26.620Z,15.62
2023-05-20T04:46:53.825Z,15.55
2023-05-20T04:49:20.824Z,15.58
2023-05-20T04:51:50.406Z,15.43
2023-05-20T04:54:18.573Z,15.61
2023-05-20T04:56:45.845Z,15.69
2023-05-20T04:59:13.476Z,15.66
2023-05-20T05:01:40.400Z,15.52
2023-05-20T05:04:07.347Z,15.64
2023-05-20T05:06:34.468Z,15.63
2023-05-20T05:09:01.595Z,15.53
2023-05-20T05:11:28.635Z,15.59
2023-05-20T05:13:55.903Z,15.71
2023-05-20T05:16:23.075Z,15.57
2023-05-20T05:18:50.109Z,15.77
2023-05-20T05:21:20.480Z,15.56
2023-05-20T05:23:47.577Z,15.44
2023-05-20T05:26:14.533Z,15.36
2023-05-20T05:28:45.688Z,15.45
2023-05-20T05:31:12.553Z,15.57
2023-05-20T05:33:39.461Z,15.67
2023-05-20T05:36:06.918Z,15.85
2023-05-20T05:38:33.973Z,15.83
2023-05-20T05:41:00.864Z,15.80
2023-05-20T05:43:27.753Z,15.83
2023-05-20T05:45:55.045Z,15.79
2023-05-20T05:48:24.977Z,15.71
2023-05-20T05:50:52.579Z,15.54
2023-05-20T05:53:19.590Z,15.63
2023-05-20T05:55:47.452Z,15.81
2023-05-20T05:58:14.535Z,16.04
2023-05-20T06:00:41.646Z,15.88
2023-05-20T06:03:08.826Z,15.91
2023-05-20T06:05:39.134Z,15.90
2023-05-20T06:08:06.209Z,15.95
2023-05-20T06:10:36.988Z,15.94
2023-05-20T06:13:03.888Z,16.09
2023-05-20T06:15:31.994Z,16.05
2023-05-20T06:17:59.171Z,15.98
2023-05-20T06:20:26.748Z,15.95
2023-05-20T06:22:53.784Z,15.95
2023-05-20T06:25:20.723Z,15.92
2023-05-20T06:27:47.569Z,15.96
2023-05-20T06:30:14.619Z,15.93
2023-05-20T06:32:41.438Z,15.93
2023-05-20T06:35:08.967Z,15.92
2023-05-20T06:37:36.014Z,15.99
2023-05-20T06:40:03.209Z,16.00
2023-05-20T06:42:30.078Z,15.92
2023-05-20T06:44:59.097Z,15.88
2023-05-20T06:47:30.685Z,15.87
2023-05-20T06:49:57.794Z,15.83
2023-05-20T06:52:24.900Z,15.90
2023-05-20T06:54:51.876Z,16.02
2023-05-20T06:57:18.841Z,15.98
2023-05-20T06:59:46.473Z,16.17
2023-05-20T07:02:13.389Z,16.08
2023-05-20T07:04:40.422Z,15.97
2023-05-20T07:07:07.737Z,15.89
2023-05-20T07:09:39.223Z,15.86
2023-05-20T07:12:07.023Z,15.87
2023-05-20T07:14:34.171Z,15.84
2023-05-20T07:17:09.156Z,15.82
2023-05-20T07:19:36.423Z,15.76
2023-05-20T07:22:03.645Z,15.77
2023-05-20T07:24:31.015Z,15.80
2023-05-20T07:26:58.439Z,15.94
2023-05-20T07:29:25.524Z,15.84
2023-05-20T07:31:53.013Z,15.84
2023-05-20T07:34:20.252Z,15.84
2023-05-20T07:36:47.329Z,15.80
2023-05-20T07:39:16.234Z,15.78
2023-05-20T07:41:43.191Z,15.81
2023-05-20T07:44:11.564Z,15.83
2023-05-20T07:46:44.945Z,15.92
2023-05-20T07:49:15.144Z,15.95
2023-05-20T07:51:42.647Z,16.06
2023-05-20T07:54:09.638Z,16.11
2023-05-20T07:56:36.922Z,16.03
2023-05-20T07:59:03.892Z,16.02
2023-05-20T08:01:31.348Z,15.98
2023-05-20T08:03:58.460Z,16.03
2023-05-20T08:06:27.315Z,16.12
2023-05-20T08:08:57.234Z,16.10
2023-05-20T08:11:25.574Z,16.08
2023-05-20T08:13:52.888Z,16.12
2023-05-20T08:16:22.132Z,16.18
2023-05-20T08:18:49.147Z,16.24
2023-05-20T08:21:16.275Z,16.24
2023-05-20T08:23:43.170Z,16.35
2023-05-20T08:26:16.815Z,16.38
2023-05-20T08:28:49.208Z,16.30
2023-05-20T08:31:18.301Z,16.22
2023-05-20T08:33:45.257Z,16.21
2023-05-20T08:36:12.402Z,16.21
2023-05-20T08:38:39.519Z,16.16
2023-05-20T08:41:09.938Z,16.18
2023-05-20T08:43:45.688Z,16.25
2023-05-20T08:46:15.110Z,16.25
2023-05-20T08:48:43.417Z,16.28
2023-05-20T08:51:11.622Z,16.31
2023-05-20T08:53:38.529Z,16.35
2023-05-20T08:56:05.946Z,16.45
2023-05-20T08:58:33.271Z,16.48
2023-05-20T09:01:00.180Z,16.34
2023-05-20T09:03:27.491Z,16.30
2023-05-20T09:05:54.779Z,16.22
2023-05-20T09:08:29.240Z,16.26
2023-05-20T09:10:57.500Z,16.33
2023-05-20T09:13:25.039Z,16.37
2023-05-20T09:15:52.062Z,16.33
2023-05-20T09:18:20.215Z,16.38
2023-05-20T09:20:55.221Z,16.55
2023-05-20T09:23:22.493Z,16.50
2023-05-20T09:25:52.748Z,16.55
2023-05-20T09:28:21.169Z,16.73
2023-05-20T09:30:51.568Z,16.61
2023-05-20T09:33:18.541Z,16.54
2023-05-20T09:35:46.323Z,16.54
2023-05-20T09:38:14.833Z,16.56
2023-05-20T09:40:49.902Z,16.60
2023-05-20T09:43:18.563Z,16.60
2023-05-20T09:45:46.140Z,16.73
2023-05-20T09:48:18.209Z,16.75
2023-05-20T09:50:45.633Z,16.71
2023-05-20T09:53:21.479Z,16.55
2023-05-20T09:55:51.327Z,16.65
2023-05-20T09:58:20.679Z,16.82
2023-05-20T10:00:50.704Z,16.77
2023-05-20T10:03:19.487Z,16.75
2023-05-20T10:05:57.358Z,16.70
2023-05-20T10:09:03.146Z,16.80
2023-05-20T10:12:02.312Z,16.91
2023-05-20T10:14:47.516Z,16.91
2023-05-20T10:17:26.884Z,16.87
2023-05-20T10:20:00.965Z,16.89
2023-05-20T10:22:30.060Z,16.94
2023-05-20T10:25:06.981Z,16.93
2023-05-20T10:27:48.485Z,16.82
2023-05-20T10:30:17.022Z,16.74
2023-05-20T10:32:54.406Z,16.84
2023-05-20T10:35:26.707Z,16.79
2023-05-20T10:37:56.045Z,16.77
2023-05-20T10:40:23.638Z,16.88
2023-05-20T10:42:51.209Z,16.79
2023-05-20T10:45:29.398Z,16.85
2023-05-20T10:47:58.121Z,16.75
2023-05-20T10:50:40.732Z,16.70
2023-05-20T10:53:18.554Z,16.70
2023-05-20T10:55:55.189Z,16.85
2023-05-20T10:58:23.959Z,16.76
2023-05-20T11:00:56.429Z,16.72
2023-05-20T11:03:23.779Z,16.72
2023-05-20T11:05:51.466Z,16.71
2023-05-20T11:08:28.589Z,16.70
2023-05-20T11:10:59.657Z,16.73
2023-05-20T11:13:31.392Z,16.89
2023-05-20T11:16:00.522Z,17.01
2023-05-20T11:18:31.158Z,17.03
2023-05-20T11:21:02.431Z,17.03
2023-05-20T11:23:30.623Z,16.99
2023-05-20T11:25:58.162Z,16.97
2023-05-20T11:28:27.630Z,17.05
2023-05-20T11:30:55.557Z,17.13
2023-05-20T11:33:30.990Z,17.36
2023-05-20T11:35:58.153Z,17.24
2023-05-20T11:38:25.104Z,17.20
2023-05-20T11:40:56.843Z,17.41
2023-05-20T11:43:24.657Z,17.49
2023-05-20T11:46:01.758Z,17.56
2023-05-20T11:48:28.845Z,17.46
2023-05-20T11:50:56.942Z,17.45
2023-05-20T11:53:25.035Z,17.42
2023-05-20T11:55:55.322Z,17.51
2023-05-20T11:58:27.190Z,17.57
2023-05-20T12:01:02.376Z,17.47
2023-05-20T12:03:37.232Z,17.52
2023-05-20T12:06:04.838Z,17.50
2023-05-20T12:08:32.153Z,17.50
2023-05-20T12:10:59.015Z,17.54
2023-05-20T12:13:25.889Z,17.59
2023-05-20T12:15:53.108Z,17.54
2023-05-20T12:18:20.142Z,17.40
2023-05-20T12:20:47.032Z,17.47
2023-05-20T12:23:17.224Z,17.49
2023-05-20T12:25:46.047Z,17.42
2023-05-20T12:28:13.653Z,17.56
2023-05-20T12:30:40.916Z,17.63
2023-05-20T12:33:08.103Z,17.59
2023-05-20T12:35:42.688Z,17.60
2023-05-20T12:38:10.306Z,17.64
2023-05-20T12:40:37.907Z,17.66
2023-05-20T12:43:06.312Z,17.74
2023-05-20T12:45:39.109Z,17.71
2023-05-20T12:48:08.176Z,17.79
2023-05-20T12:50:35.461Z,17.85
2023-05-20T12:53:05.809Z,17.85
2023-05-20T12:55:32.632Z,17.80
2023-05-20T12:57:59.503Z,17.89
2023-05-20T13:00:26.383Z,17.96
2023-05-20T13:02:53.455Z,17.97
2023-05-20T13:05:20.886Z,18.09
2023-05-20T13:07:49.247Z,18.00
2023-05-20T13:10:17.475Z,17.97
2023-05-20T13:12:46.542Z,17.93
2023-05-20T13:15:15.145Z,17.90
2023-05-20T13:17:45.817Z,17.87
2023-05-20T13:20:13.530Z,17.92
2023-05-20T13:22:47.616Z,17.96
2023-05-20T13:25:14.773Z,17.97
2023-05-20T13:27:42.997Z,17.97
2023-05-20T13:30:10.905Z,17.93
2023-05-20T13:32:45.707Z,17.96
2023-05-20T13:35:19.502Z,17.96
2023-05-20T13:37:46.484Z,17.84
2023-05-20T13:40:13.632Z,17.97
2023-05-20T13:42:40.790Z,17.95
2023-05-20T13:45:10.595Z,17.95
2023-05-20T13:47:38.861Z,17.88
2023-05-20T13:50:06.997Z,17.90
2023-05-20T13:52:34.325Z,17.94
2023-05-20T13:55:01.327Z,17.87
2023-05-20T13:57:28.244Z,18.00
2023-05-20T13:59:55.267Z,18.08
2023-05-20T14:02:22.401Z,18.08
2023-05-20T14:04:49.753Z,17.99
2023-05-20T14:07:21.864Z,17.96
2023-05-20T14:09:48.919Z,18.00
2023-05-20T14:12:16.069Z,18.07
2023-05-20T14:14:43.312Z,18.04
2023-05-20T14:17:10.742Z,18.00
2023-05-20T14:19:37.958Z,18.02
2023-05-20T14:22:05.560Z,17.99
2023-05-20T14:24:33.173Z,18.02
2023-05-20T14:27:00.175Z,18.02
2023-05-20T14:29:27.082Z,18.02
2023-05-20T14:31:56.900Z,18.06
2023-05-20T14:34:27.598Z,18.07
2023-05-20T14:36:54.717Z,18.02
2023-05-20T14:39:21.461Z,18.10
2023-05-20T14:41:48.412Z,18.07
2023-05-20T14:44:25.382Z,18.09
2023-05-20T14:46:56.267Z,18.03
2023-05-20T14:49:23.600Z,18.02
2023-05-20T14:51:50.744Z,18.04
2023-05-20T14:54:19.353Z,18.03
2023-05-20T14:56:47.563Z,17.95
2023-05-20T14:59:16.262Z,18.05
2023-05-20T15:01:43.324Z,17.99
2023-05-20T15:04:10.676Z,18.11
2023-05-20T15:06:37.993Z,18.06
2023-05-20T15:09:06.497Z,18.03
2023-05-20T15:11:34.579Z,18.01
2023-05-20T15:14:01.481Z,18.14
2023-05-20T15:16:28.489Z,18.16
2023-05-20T15:18:58.941Z,18.14
2023-05-20T15:21:25.986Z,18.17
2023-05-20T15:23:52.975Z,18.18
2023-05-20T15:26:19.892Z,18.20
2023-05-20T15:28:46.755Z,18.14
2023-05-20T15:31:13.682Z,18.16
2023-05-20T15:33:40.914Z,18.10
2023-05-20T15:36:08.008Z,18.12
2023-05-20T15:38:34.928Z,18.19
2023-05-20T15:41:03.117Z,18.16
2023-05-20T15:43:34.106Z,18.17
2023-05-20T15:46:04.694Z,18.09
2023-05-20T15:48:31.576Z,18.07
2023-05-20T15:51:01.221Z,18.16
2023-05-20T15:53:28.125Z,18.13
2023-05-20T15:55:55.212Z,18.14
2023-05-20T15:58:26.321Z,18.11
2023-05-20T16:00:56.268Z,18.04
2023-05-20T16:03:23.243Z,17.98
2023-05-20T16:05:50.167Z,17.99
2023-05-20T16:08:17.284Z,18.25
2023-05-20T16:10:44.230Z,18.14
2023-05-20T16:13:11.161Z,18.16
2023-05-20T16:15:38.814Z,18.12
2023-05-20T16:18:06.096Z,18.11
2023-05-20T16:20:33.267Z,18.09
2023-05-20T16:23:00.467Z,18.01
2023-05-20T16:25:27.368Z,17.93
2023-05-20T16:27:54.277Z,18.00
2023-05-20T16:30:23.778Z,17.91
2023-05-20T16:32:51.116Z,17.96
2023-05-20T16:35:18.138Z,17.96
2023-05-20T16:37:45.150Z,18.01
2023-05-20T16:40:16.008Z,18.04
2023-05-20T16:42:46.909Z,18.09
2023-05-20T16:45:13.980Z,18.17
2023-05-20T16:47:48.479Z,18.09
2023-05-20T16:50:15.508Z,17.97
2023-05-20T16:52:42.569Z,18.08
2023-05-20T16:55:10.712Z,18.09
2023-05-20T16:57:37.813Z,18.06
2023-05-20T17:02:56.866Z,18.08
2023-05-20T17:05:25.810Z,18.06
2023-05-20T17:07:56.080Z,18.08
2023-05-20T17:10:24.936Z,18.08
2023-05-20T17:12:55.273Z,18.11
2023-05-20T17:15:23.792Z,18.15
2023-05-20T17:17:52.328Z,18.11
2023-05-20T17:20:19.534Z,18.15
2023-05-20T17:22:46.855Z,17.99
2023-05-20T17:25:13.847Z,17.99
2023-05-20T17:27:42.330Z,17.98
2023-05-20T17:30:09.548Z,18.17
2023-05-20T17:32:36.647Z,18.10
2023-05-20T17:35:03.847Z,18.13
2023-05-20T17:37:31.165Z,18.16
2023-05-20T17:40:01.113Z,18.11
2023-05-20T17:42:28.141Z,18.02
2023-05-20T17:44:56.998Z,18.03
2023-05-20T17:47:25.714Z,18.12
2023-05-20T17:49:52.746Z,18.09
2023-05-20T17:52:23.264Z,18.11
2023-05-20T17:54:50.207Z,18.05
2023-05-20T17:57:19.850Z,18.03
2023-05-20T17:59:48.703Z,18.11
2023-05-20T18:02:15.774Z,18.13
2023-05-20T18:04:43.966Z,18.07
2023-05-20T18:07:15.684Z,18.02
2023-05-20T18:09:43.285Z,18.01
2023-05-20T18:12:10.195Z,17.93
2023-05-20T18:14:37.282Z,17.95
2023-05-20T18:17:04.320Z,18.07
2023-05-20T18:19:33.859Z,18.09
2023-05-20T18:22:01.589Z,18.03
2023-05-20T18:24:28.768Z,18.08
2023-05-20T18:27:00.165Z,18.06
2023-05-20T18:29:27.472Z,18.10
2023-05-20T18:31:54.564Z,17.98
2023-05-20T18:34:21.613Z,18.13
2023-05-20T18:36:49.142Z,18.03
2023-05-20T18:39:23.643Z,18.01
2023-05-20T18:41:50.806Z,17.98
2023-05-20T18:44:19.117Z,18.03
2023-05-20T18:46:46.994Z,17.98
2023-05-20T18:49:15.258Z,17.86
2023-05-20T18:51:45.590Z,17.87
2023-05-20T18:54:17.581Z,17.85
2023-05-20T18:56:45.636Z,17.87
2023-05-20T18:59:17.174Z,17.81
2023-05-20T19:01:46.965Z,17.80
2023-05-20T19:04:14.326Z,17.87
2023-05-20T19:06:43.501Z,17.87
2023-05-20T19:09:10.626Z,17.79
2023-05-20T19:11:37.945Z,17.75
2023-05-20T19:14:06.738Z,17.87
2023-05-20T19:16:34.457Z,18.02
2023-05-20T19:19:04.444Z,17.91
2023-05-20T19:21:31.774Z,17.78
2023-05-20T19:23:58.781Z,17.72
2023-05-20T19:26:26.953Z,17.60
2023-05-20T19:28:55.190Z,17.57
2023-05-20T19:31:22.308Z,17.53
2023-05-20T19:33:49.525Z,17.52
2023-05-20T19:36:17.716Z,17.54
2023-05-20T19:38:44.766Z,17.55
2023-05-20T19:41:19.114Z,17.58
2023-05-20T19:43:53.422Z,17.65
2023-05-20T19:46:20.580Z,17.79
2023-05-20T19:48:47.617Z,17.96
2023-05-20T19:51:14.878Z,18.00
2023-05-20T19:53:41.959Z,17.89
2023-05-20T19:56:08.998Z,17.90
2023-05-20T19:58:36.575Z,17.90
2023-05-20T20:01:05.093Z,17.84
2023-05-20T20:03:34.359Z,17.74
2023-05-20T20:06:01.485Z,17.70
2023-05-20T20:08:30.990Z,17.68
2023-05-20T20:10:59.404Z,17.70
2023-05-20T20:13:27.228Z,17.65
2023-05-20T20:15:54.219Z,17.83
2023-05-20T20:18:22.337Z,17.80
2023-05-20T20:20:51.049Z,17.73
2023-05-20T20:23:25.462Z,17.73
2023-05-20T20:25:52.780Z,17.69
2023-05-20T20:28:20.027Z,17.68
2023-05-20T20:30:47.278Z,17.65
2023-05-20T20:33:16.742Z,17.56
2023-05-20T20:35:44.129Z,17.45
2023-05-20T20:38:12.916Z,17.53
2023-05-20T20:40:42.741Z,17.60
2023-05-20T20:43:20.493Z,17.39
2023-05-20T20:45:48.418Z,17.26
2023-05-20T20:48:19.113Z,17.23
2023-05-20T20:50:48.357Z,17.15
2023-05-20T20:53:17.365Z,17.08
2023-05-20T20:55:46.420Z,17.06
2023-05-20T20:58:15.805Z,17.13
2023-05-20T21:00:45.352Z,17.07
2023-05-20T21:03:13.296Z,17.02
2023-05-20T21:05:40.630Z,16.95
2023-05-20T21:08:08.788Z,16.94
2023-05-20T21:10:37.466Z,16.95
2023-05-20T21:13:07.444Z,16.92
2023-05-20T21:15:40.533Z,16.85
2023-05-20T21:18:07.962Z,16.88
2023-05-20T21:20:35.079Z,16.95
2023-05-20T21:23:10.791Z,17.01
2023-05-20T21:25:38.189Z,17.02
2023-05-20T21:28:07.759Z,17.02
2023-05-20T21:30:34.848Z,16.97
2023-05-20T21:33:02.400Z,16.95
2023-05-20T21:35:32.686Z,16.96
2023-05-20T21:37:59.922Z,16.95
2023-05-20T21:40:26.811Z,16.96
2023-05-20T21:42:57.560Z,16.99
2023-05-20T21:45:24.721Z,16.94
2023-05-20T21:47:51.930Z,16.94
2023-05-20T21:50:18.916Z,16.94
2023-05-20T21:52:46.057Z,16.91
2023-05-20T21:55:13.159Z,16.88
2023-05-20T21:57:43.124Z,16.90
2023-05-20T22:00:10.849Z,16.81
2023-05-20T22:02:39.139Z,16.82
2023-05-20T22:05:06.948Z,16.82
2023-05-20T22:07:37.299Z,16.79
2023-05-20T22:10:05.389Z,16.83
2023-05-20T22:12:32.359Z,16.84
2023-05-20T22:14:59.269Z,16.78
2023-05-20T22:17:26.423Z,16.77
2023-05-20T22:19:54.482Z,16.71
2023-05-20T22:22:24.486Z,16.77
2023-05-20T22:24:51.413Z,16.76
2023-05-20T22:27:19.714Z,16.77
2023-05-20T22:29:47.681Z,16.78
2023-05-20T22:32:14.575Z,16.78
2023-05-20T22:34:41.457Z,16.81
2023-05-20T22:37:19.106Z,16.77
2023-05-20T22:39:46.193Z,16.77
2023-05-20T22:42:13.470Z,16.75
2023-05-20T22:44:45.247Z,16.76
2023-05-20T22:47:12.230Z,16.79
2023-05-20T22:49:40.793Z,16.75
2023-05-20T22:52:13.323Z,16.79
2023-05-20T22:54:41.336Z,16.76
2023-05-20T22:57:08.716Z,16.84
2023-05-20T22:59:44.114Z,16.85
2023-05-20T23:02:11.434Z,16.83
2023-05-20T23:04:38.453Z,16.75
2023-05-20T23:07:05.985Z,16.77
2023-05-20T23:09:33.098Z,16.81
2023-05-20T23:12:03.105Z,16.99
2023-05-20T23:14:30.034Z,17.08
2023-05-20T23:16:57.019Z,17.16
2023-05-20T23:19:23.968Z,17.03
2023-05-20T23:21:51.178Z,17.07
2023-05-20T23:24:19.965Z,17.10
2023-05-20T23:26:49.739Z,17.12
2023-05-20T23:29:17.852Z,17.08
2023-05-20T23:31:45.321Z,17.05
2023-05-20T23:34:12.361Z,17.10
2023-05-20T23:36:42.516Z,16.99
2023-05-20T23:39:09.588Z,16.96
2023-05-20T23:41:36.418Z,16.90
2023-05-20T23:44:04.312Z,16.81
2023-05-20T23:46:32.033Z,16.82
2023-05-20T23:49:02.236Z,16.80
2023-05-20T23:51:29.091Z,16.76
2023-05-20T23:53:55.967Z,16.75
2023-05-20T23:56:23.155Z,16.83
2023-05-20T23:59:00.085Z,16.77
